Time;durP1;ratioP1;P1;durP2;ratioP2;P2;SDS_P1;SDS_P2;PMS_P1;PMS_P2;Temp;Humidity;BMP_temperature;BMP_pressure;BME280_temperature;BME280_humidity;BME280_pressure;Samples;Min_cycle;Max_cycle;Signal;HPM_P1;HPM_P2
2021/12/03 00:02:15;;;;;;;86.03;48.65;;;1.20;99.90;;;;;;4894117;29;20041;-59
2021/12/03 00:04:41;;;;;;;111.65;67.30;;;1.00;99.90;;;;;;4897044;29;20512;-59
2021/12/03 00:07:07;;;;;;;52.13;32.95;;;1.10;99.90;;;;;;4895850;29;20029;-58
2021/12/03 00:09:36;;;;;;;52.97;33.92;;;1.00;99.90;;;;;;4895436;29;20020;-59
2021/12/03 00:12:03;;;;;;;44.67;29.63;;;1.10;99.90;;;;;;4891951;29;20037;-59
2021/12/03 00:14:29;;;;;;;47.30;31.02;;;1.10;99.90;;;;;;4895599;29;20108;-59
2021/12/03 00:16:54;;;;;;;36.83;24.58;;;1.20;99.90;;;;;;4897195;29;20107;-59
2021/12/03 00:19:20;;;;;;;37.53;24.70;;;0.90;99.90;;;;;;4891437;29;20403;-58
2021/12/03 00:21:46;;;;;;;41.05;30.98;;;0.70;99.90;;;;;;4895627;29;20492;-59
2021/12/03 00:24:11;;;;;;;42.22;29.98;;;0.60;99.90;;;;;;4895359;29;20041;-59
2021/12/03 00:26:38;;;;;;;36.53;25.58;;;0.60;99.90;;;;;;4895503;29;20043;-58
2021/12/03 00:29:04;;;;;;;33.05;25.88;;;0.60;99.90;;;;;;4896004;29;20028;-59
2021/12/03 00:31:30;;;;;;;37.92;27.23;;;0.70;99.90;;;;;;4880766;29;20393;-59
2021/12/03 00:33:55;;;;;;;43.75;34.25;;;0.80;99.90;;;;;;4895155;29;20032;-59
2021/12/03 00:36:23;;;;;;;37.83;28.23;;;0.80;99.90;;;;;;4875833;29;20033;-59
2021/12/03 00:38:53;;;;;;;44.92;32.67;;;0.60;99.90;;;;;;4880927;29;20033;-59
2021/12/03 00:41:20;;;;;;;39.22;29.58;;;0.50;99.90;;;;;;4894621;29;20021;-59
2021/12/03 00:43:48;;;;;;;38.58;25.70;;;0.40;99.90;;;;;;4896680;29;20033;-59
2021/12/03 00:46:17;;;;;;;40.38;29.63;;;0.30;99.90;;;;;;4894757;29;20052;-59
2021/12/03 00:48:45;;;;;;;37.88;30.08;;;0.30;99.90;;;;;;4891438;29;20447;-59
2021/12/03 00:51:11;;;;;;;46.13;37.80;;;0.50;99.90;;;;;;4891055;29;20040;-59
2021/12/03 00:53:38;;;;;;;47.35;39.33;;;0.40;99.90;;;;;;4894927;29;20056;-59
2021/12/03 00:56:06;;;;;;;42.30;34.65;;;0.40;99.90;;;;;;4895571;29;20025;-59
2021/12/03 00:58:31;;;;;;;101.68;75.35;;;0.60;99.90;;;;;;4892032;29;20050;-59
2021/12/03 01:00:57;;;;;;;97.30;71.13;;;0.60;99.90;;;;;;4894871;29;20498;-59
2021/12/03 01:03:23;;;;;;;142.95;106.32;;;0.50;99.90;;;;;;4894770;29;20032;-59
2021/12/03 01:05:49;;;;;;;85.22;59.00;;;0.30;99.90;;;;;;4894568;29;20037;-59
2021/12/03 01:08:15;;;;;;;76.95;55.50;;;0.40;99.90;;;;;;4894678;29;20391;-59
2021/12/03 01:10:41;;;;;;;64.32;43.97;;;0.30;99.90;;;;;;4891512;29;20028;-59
2021/12/03 01:13:07;;;;;;;60.58;38.80;;;0.20;99.90;;;;;;4896838;29;20100;-59
2021/12/03 01:15:36;;;;;;;55.95;37.15;;;0.20;99.90;;;;;;4898312;29;20033;-59
2021/12/03 01:18:04;;;;;;;47.03;30.90;;;0.10;99.90;;;;;;4897984;29;20039;-59
2021/12/03 01:20:31;;;;;;;60.92;48.10;;;0.00;99.90;;;;;;4899036;29;20082;-59
2021/12/03 01:22:58;;;;;;;48.35;32.10;;;0.10;99.90;;;;;;4899146;29;20029;-59
2021/12/03 01:25:24;;;;;;;48.05;35.53;;;0.30;99.90;;;;;;4894705;29;20093;-59
2021/12/03 01:27:51;;;;;;;74.60;63.97;;;0.50;99.90;;;;;;4894447;29;20028;-59
2021/12/03 01:30:19;;;;;;;54.80;46.90;;;0.50;99.90;;;;;;4894872;29;20468;-58
2021/12/03 01:32:47;;;;;;;43.20;35.92;;;0.30;99.90;;;;;;4898379;29;20104;-58
2021/12/03 01:35:13;;;;;;;29.95;21.20;;;0.20;99.90;;;;;;4898471;29;20025;-59
2021/12/03 01:37:39;;;;;;;35.25;26.35;;;0.00;99.90;;;;;;4895286;29;20418;-58
2021/12/03 01:40:10;;;;;;;18.48;13.75;;;0.00;99.90;;;;;;4898293;29;20474;-59
2021/12/03 01:42:37;;;;;;;18.05;11.45;;;0.10;99.90;;;;;;4898164;29;20032;-60
2021/12/03 01:45:06;;;;;;;17.20;12.98;;;-0.10;99.90;;;;;;4893340;29;20060;-58
2021/12/03 01:47:31;;;;;;;13.70;9.20;;;-0.20;99.90;;;;;;4897507;29;20505;-59
2021/12/03 01:49:57;;;;;;;11.52;8.30;;;-0.30;99.90;;;;;;4895564;29;20032;-59
2021/12/03 01:52:23;;;;;;;13.63;8.65;;;-0.20;99.90;;;;;;4898559;29;20541;-58
2021/12/03 01:54:49;;;;;;;12.95;8.55;;;0.10;99.90;;;;;;4898038;29;20475;-58
2021/12/03 01:57:14;;;;;;;16.52;9.85;;;0.20;99.90;;;;;;4898209;29;20037;-59
2021/12/03 01:59:40;;;;;;;23.92;14.15;;;0.20;99.90;;;;;;4898119;29;20025;-59
2021/12/03 02:02:06;;;;;;;17.08;10.27;;;0.10;99.90;;;;;;4898059;29;20101;-58
2021/12/03 02:04:32;;;;;;;15.13;9.38;;;0.10;99.90;;;;;;4898838;29;20109;-59
2021/12/03 02:06:58;;;;;;;15.15;8.65;;;-0.10;99.90;;;;;;4893642;29;20107;-58
2021/12/03 02:09:23;;;;;;;13.25;8.38;;;-0.30;99.90;;;;;;4893860;29;20796;-59
2021/12/03 02:11:49;;;;;;;13.88;8.02;;;-0.40;99.90;;;;;;4898029;29;20068;-59
2021/12/03 02:14:15;;;;;;;11.30;6.35;;;-0.50;99.90;;;;;;4897804;29;20038;-58
2021/12/03 02:16:44;;;;;;;10.65;6.55;;;-0.50;99.90;;;;;;4895208;29;20040;-57
2021/12/03 02:19:09;;;;;;;19.33;9.02;;;-0.60;99.90;;;;;;4897548;29;20486;-59
2021/12/03 02:21:35;;;;;;;15.02;8.38;;;-0.50;99.90;;;;;;4893041;29;20036;-58
2021/12/03 02:24:01;;;;;;;19.80;9.60;;;-0.10;99.90;;;;;;4896652;29;20029;-59
2021/12/03 02:26:27;;;;;;;13.43;8.38;;;0.00;99.90;;;;;;4898041;29;20526;-58
2021/12/03 02:28:52;;;;;;;17.13;9.35;;;-0.50;99.90;;;;;;4898859;29;20470;-59
2021/12/03 02:31:23;;;;;;;18.30;11.57;;;-0.70;99.90;;;;;;4897538;29;20441;-59
2021/12/03 02:33:49;;;;;;;21.35;12.88;;;-0.80;99.90;;;;;;4896956;29;20078;-59
2021/12/03 02:36:16;;;;;;;20.08;10.98;;;-0.60;99.90;;;;;;4897412;29;20108;-59
2021/12/03 02:38:42;;;;;;;15.60;11.40;;;-0.70;99.90;;;;;;4897436;29;20056;-59
2021/12/03 02:41:08;;;;;;;15.50;11.10;;;-0.60;99.90;;;;;;4897906;29;20037;-59
2021/12/03 02:43:34;;;;;;;22.08;13.45;;;-0.70;99.90;;;;;;4898215;29;20090;-59
2021/12/03 02:46:00;;;;;;;21.00;13.25;;;-0.80;99.90;;;;;;4896742;29;20120;-59
2021/12/03 02:48:27;;;;;;;16.88;11.45;;;-0.80;99.90;;;;;;4892820;29;20104;-59
2021/12/03 02:50:54;;;;;;;16.20;10.80;;;-0.80;99.90;;;;;;4897277;29;20032;-59
2021/12/03 02:53:20;;;;;;;22.67;13.85;;;-0.70;99.90;;;;;;4897565;29;20025;-59
2021/12/03 02:55:47;;;;;;;17.85;11.52;;;-0.60;99.90;;;;;;4868352;29;20044;-58
2021/12/03 02:58:12;;;;;;;16.45;10.82;;;-0.70;99.90;;;;;;4895671;29;20029;-59
2021/12/03 03:00:40;;;;;;;19.30;12.30;;;-0.70;99.90;;;;;;4893124;29;20054;-59
2021/12/03 03:03:06;;;;;;;19.17;11.80;;;-0.50;99.90;;;;;;4896287;29;20127;-59
2021/12/03 03:05:32;;;;;;;24.17;16.80;;;-0.40;99.90;;;;;;4897331;29;20502;-58
2021/12/03 03:07:58;;;;;;;20.92;15.25;;;-0.50;99.90;;;;;;4865595;29;20037;-59
2021/12/03 03:10:30;;;;;;;22.80;13.68;;;-0.70;99.90;;;;;;4897734;29;20439;-59
2021/12/03 03:12:57;;;;;;;21.45;13.20;;;-0.70;99.90;;;;;;4896632;29;20028;-59
2021/12/03 03:15:23;;;;;;;21.23;13.40;;;-0.40;99.90;;;;;;4896773;29;20095;-58
2021/12/03 03:17:49;;;;;;;21.17;13.73;;;-0.40;99.90;;;;;;4876688;29;20407;-59
2021/12/03 03:20:16;;;;;;;42.50;22.73;;;-0.60;99.90;;;;;;4895434;29;20040;-58
2021/12/03 03:22:43;;;;;;;44.38;24.00;;;-0.50;99.90;;;;;;4897604;29;20121;-59
2021/12/03 03:25:14;;;;;;;40.22;22.75;;;-0.40;99.90;;;;;;4896370;29;20070;-59
2021/12/03 03:27:40;;;;;;;38.08;22.38;;;-0.50;99.90;;;;;;4892327;29;20040;-59
2021/12/03 03:30:11;;;;;;;42.35;24.00;;;-0.60;99.90;;;;;;4878033;29;20398;-59
2021/12/03 03:32:37;;;;;;;40.30;22.60;;;-0.50;99.90;;;;;;4882967;29;20509;-60
2021/12/03 03:35:03;;;;;;;45.05;24.25;;;-0.70;99.90;;;;;;4896675;29;20501;-59
2021/12/03 03:37:29;;;;;;;54.90;29.98;;;-0.80;99.90;;;;;;4896296;29;20035;-58
2021/12/03 03:39:54;;;;;;;41.08;24.23;;;-0.90;99.90;;;;;;4892693;29;20036;-59
2021/12/03 03:42:20;;;;;;;40.72;22.95;;;-0.90;99.90;;;;;;4896122;29;20052;-59
2021/12/03 03:44:46;;;;;;;29.05;19.55;;;-1.00;99.90;;;;;;4896041;29;20474;-59
2021/12/03 03:47:12;;;;;;;29.48;17.55;;;-0.90;99.90;;;;;;4895784;29;20186;-59
2021/12/03 03:49:39;;;;;;;35.35;20.85;;;-0.70;99.90;;;;;;4879275;29;20073;-59
2021/12/03 03:52:05;;;;;;;27.17;17.08;;;-0.60;99.90;;;;;;4893829;29;20040;-59
2021/12/03 03:54:32;;;;;;;27.67;16.80;;;-0.60;99.90;;;;;;4896242;29;20562;-59
2021/12/03 03:56:57;;;;;;;24.23;14.60;;;-0.60;99.90;;;;;;4895891;29;20088;-59
2021/12/03 03:59:23;;;;;;;37.47;18.42;;;-0.50;99.90;;;;;;4895930;29;20032;-59
2021/12/03 04:01:51;;;;;;;58.33;21.40;;;-0.20;99.90;;;;;;4892691;29;20033;-59
2021/12/03 04:04:17;;;;;;;37.35;19.65;;;0.00;99.90;;;;;;4895977;29;20037;-58
2021/12/03 04:06:44;;;;;;;68.35;16.30;;;0.00;99.90;;;;;;4891749;29;20028;-58
2021/12/03 04:09:10;;;;;;;52.80;15.05;;;0.10;99.90;;;;;;4895572;29;20071;-58
2021/12/03 04:11:36;;;;;;;32.42;15.73;;;0.20;99.90;;;;;;4895011;29;20028;-59
2021/12/03 04:14:02;;;;;;;61.85;22.33;;;0.20;99.90;;;;;;4893364;29;20032;-59
2021/12/03 04:16:28;;;;;;;55.17;23.40;;;0.20;99.90;;;;;;4895973;29;20544;-59
2021/12/03 04:18:54;;;;;;;51.03;23.35;;;0.30;99.90;;;;;;4895437;29;20044;-59
2021/12/03 04:21:21;;;;;;;43.25;22.10;;;0.40;99.90;;;;;;4895615;29;20071;-58
2021/12/03 04:23:47;;;;;;;40.42;22.42;;;0.40;99.90;;;;;;4895819;29;20603;-58
2021/12/03 04:26:13;;;;;;;36.50;21.98;;;0.40;99.90;;;;;;4895075;29;20040;-59
2021/12/03 04:28:39;;;;;;;47.05;26.73;;;0.40;99.90;;;;;;4892534;29;20028;-59
2021/12/03 04:31:04;;;;;;;49.63;28.73;;;0.50;99.90;;;;;;4895081;29;20056;-59
2021/12/03 04:33:30;;;;;;;39.20;23.27;;;0.60;99.90;;;;;;4895729;29;20048;-58
2021/12/03 04:35:56;;;;;;;40.25;23.08;;;0.60;99.90;;;;;;4895362;29;20024;-58
2021/12/03 04:38:22;;;;;;;23.98;14.55;;;0.70;99.90;;;;;;4895650;29;20405;-59
2021/12/03 04:40:48;;;;;;;24.25;14.13;;;0.70;99.90;;;;;;4892651;29;20029;-59
2021/12/03 04:43:14;;;;;;;25.30;15.38;;;0.80;99.90;;;;;;4895519;29;20521;-59
2021/12/03 04:45:40;;;;;;;22.60;14.05;;;0.90;99.90;;;;;;4890609;29;20044;-59
2021/12/03 04:48:07;;;;;;;15.07;11.15;;;0.90;99.90;;;;;;4897912;29;20033;-58
2021/12/03 04:50:40;;;;;;;15.77;11.23;;;1.10;99.90;;;;;;4898984;29;20157;-59
2021/12/03 04:53:06;;;;;;;18.90;11.37;;;1.00;99.90;;;;;;4896913;29;20021;-59
2021/12/03 04:55:32;;;;;;;19.30;13.68;;;1.00;99.90;;;;;;4899950;29;20029;-59
2021/12/03 04:57:59;;;;;;;20.98;14.77;;;1.00;99.90;;;;;;4899272;29;20040;-59
2021/12/03 05:00:37;;;;;;;25.42;20.27;;;1.10;99.90;;;;;;4898785;29;20080;-59
2021/12/03 05:03:03;;;;;;;19.45;15.82;;;1.00;99.90;;;;;;4898940;29;20070;-59
2021/12/03 05:05:33;;;;;;;15.00;10.38;;;1.10;99.90;;;;;;4899022;29;20052;-58
2021/12/03 05:08:10;;;;;;;16.23;11.77;;;1.00;99.90;;;;;;4899475;29;20037;-59
2021/12/03 05:10:40;;;;;;;13.85;10.68;;;1.10;99.90;;;;;;4899869;29;20052;-59
2021/12/03 05:13:27;;;;;;;14.55;10.80;;;1.10;99.90;;;;;;4899112;29;20509;-59
2021/12/03 05:15:52;;;;;;;13.80;9.40;;;1.10;99.90;;;;;;4898629;29;20116;-59
2021/12/03 05:18:20;;;;;;;12.02;8.93;;;1.10;99.90;;;;;;4895159;29;20562;-59
2021/12/03 05:20:49;;;;;;;13.13;9.10;;;1.20;99.90;;;;;;4898820;29;20032;-59
2021/12/03 05:23:15;;;;;;;12.40;9.20;;;1.10;99.90;;;;;;4898860;29;20115;-59
2021/12/03 05:25:42;;;;;;;11.18;8.25;;;1.10;99.90;;;;;;4895690;29;20044;-59
2021/12/03 05:28:08;;;;;;;10.77;6.50;;;1.10;99.90;;;;;;4898529;29;20108;-57
2021/12/03 05:30:35;;;;;;;14.82;7.70;;;1.20;99.90;;;;;;4894327;29;20164;-59
2021/12/03 05:33:01;;;;;;;13.18;8.68;;;1.30;99.90;;;;;;4898519;29;20582;-59
2021/12/03 05:35:27;;;;;;;10.88;8.07;;;1.20;99.90;;;;;;4899189;29;20061;-58
2021/12/03 05:37:53;;;;;;;12.05;7.85;;;1.30;99.90;;;;;;4899356;29;20165;-59
2021/12/03 05:40:19;;;;;;;14.38;9.30;;;1.30;99.90;;;;;;4898297;29;20040;-58
2021/12/03 05:42:46;;;;;;;15.90;9.65;;;1.30;99.90;;;;;;4898392;29;20119;-59
2021/12/03 05:45:15;;;;;;;15.43;10.80;;;1.40;99.90;;;;;;4897796;29;20053;-58
2021/12/03 05:47:41;;;;;;;12.23;9.40;;;1.50;99.90;;;;;;4898398;29;20060;-58
2021/12/03 05:50:09;;;;;;;11.77;7.93;;;1.30;99.90;;;;;;4898349;29;20521;-59
2021/12/03 05:52:36;;;;;;;11.27;8.60;;;1.50;99.90;;;;;;4899641;29;20072;-58
2021/12/03 05:55:03;;;;;;;15.93;9.95;;;1.40;99.90;;;;;;4898126;29;20455;-59
2021/12/03 05:57:29;;;;;;;17.35;10.80;;;1.40;99.90;;;;;;4893647;29;20103;-59
2021/12/03 05:59:54;;;;;;;17.10;11.13;;;1.40;99.90;;;;;;4896894;29;20043;-60
2021/12/03 06:02:20;;;;;;;11.93;8.57;;;1.50;99.90;;;;;;4898444;29;20037;-59
2021/12/03 06:04:47;;;;;;;14.82;9.75;;;1.60;99.90;;;;;;4895051;29;20052;-59
2021/12/03 06:07:12;;;;;;;15.30;9.65;;;1.40;99.90;;;;;;4897922;29;20035;-59
2021/12/03 06:09:38;;;;;;;17.20;10.77;;;1.40;99.90;;;;;;4893546;29;20044;-59
2021/12/03 06:12:05;;;;;;;18.25;11.32;;;1.40;99.90;;;;;;4897844;29;20060;-58
2021/12/03 06:14:31;;;;;;;10.95;8.23;;;1.50;99.90;;;;;;4897486;29;20100;-58
2021/12/03 06:16:57;;;;;;;16.15;10.82;;;1.50;99.90;;;;;;4899517;29;20438;-60
2021/12/03 06:19:23;;;;;;;15.63;10.30;;;1.50;99.90;;;;;;4897969;29;20040;-59
2021/12/03 06:21:50;;;;;;;12.60;9.77;;;1.40;99.90;;;;;;4897510;29;20063;-58
2021/12/03 06:24:15;;;;;;;14.07;9.25;;;1.40;99.90;;;;;;4897651;29;20099;-59
2021/12/03 06:26:41;;;;;;;12.25;9.18;;;1.40;99.90;;;;;;4897168;29;20453;-59
2021/12/03 06:29:07;;;;;;;15.25;10.50;;;1.30;99.90;;;;;;4897823;29;20056;-60
2021/12/03 06:31:33;;;;;;;12.15;8.50;;;1.30;99.90;;;;;;4898777;29;20443;-59
2021/12/03 06:33:59;;;;;;;13.02;9.05;;;1.30;99.90;;;;;;4897343;29;20041;-59
2021/12/03 06:36:25;;;;;;;17.73;10.80;;;1.30;99.90;;;;;;4897184;29;20382;-59
2021/12/03 06:38:51;;;;;;;13.95;9.43;;;1.30;99.90;;;;;;4897460;29;20044;-59
2021/12/03 06:41:17;;;;;;;17.15;12.20;;;1.30;99.90;;;;;;4897319;29;20490;-59
2021/12/03 06:43:43;;;;;;;21.50;12.60;;;1.20;99.90;;;;;;4894765;29;20525;-59
2021/12/03 06:46:08;;;;;;;23.08;15.18;;;1.30;99.90;;;;;;4896937;29;20068;-59
2021/12/03 06:48:34;;;;;;;22.77;16.98;;;1.20;99.90;;;;;;4892962;29;20112;-59
2021/12/03 06:51:00;;;;;;;25.98;20.77;;;1.30;99.90;;;;;;4897587;29;20033;-59
2021/12/03 06:53:33;;;;;;;20.88;14.27;;;1.30;99.90;;;;;;4897251;29;20039;-59
2021/12/03 06:56:05;;;;;;;18.90;10.88;;;1.40;99.90;;;;;;4893983;29;20029;-59
2021/12/03 06:58:30;;;;;;;18.40;13.45;;;1.50;99.90;;;;;;4897981;29;20108;-59
2021/12/03 07:00:56;;;;;;;16.23;11.50;;;1.50;99.90;;;;;;4897002;29;20173;-58
2021/12/03 07:03:22;;;;;;;17.65;10.65;;;1.50;99.90;;;;;;4897084;29;20035;-58
2021/12/03 07:05:48;;;;;;;15.68;10.35;;;1.50;99.90;;;;;;4895963;29;20530;-58
2021/12/03 07:08:14;;;;;;;17.40;12.48;;;1.60;99.90;;;;;;4891054;29;20025;-58
2021/12/03 07:10:41;;;;;;;18.00;11.35;;;1.60;99.90;;;;;;4891309;29;20103;-59
2021/12/03 07:13:07;;;;;;;21.20;12.13;;;1.50;99.90;;;;;;4893504;29;20025;-58
2021/12/03 07:15:33;;;;;;;12.52;9.70;;;1.50;99.90;;;;;;4893780;29;20028;-57
2021/12/03 07:17:59;;;;;;;19.33;10.48;;;1.60;99.90;;;;;;4890969;29;20410;-58
2021/12/03 07:20:27;;;;;;;12.23;9.20;;;1.70;99.90;;;;;;4891057;29;20045;-58
2021/12/03 07:22:53;;;;;;;12.20;8.82;;;1.80;99.90;;;;;;4891717;29;20106;-58
2021/12/03 07:25:19;;;;;;;14.45;9.85;;;1.80;99.90;;;;;;4892813;29;20040;-58
2021/12/03 07:27:45;;;;;;;44.83;40.33;;;1.80;99.90;;;;;;4892599;29;20562;-59
2021/12/03 07:30:15;;;;;;;16.40;10.07;;;1.80;99.90;;;;;;4890490;29;20108;-57
2021/12/03 07:32:41;;;;;;;10.73;9.13;;;1.90;99.90;;;;;;4883005;29;20036;-59
2021/12/03 07:35:07;;;;;;;17.95;11.30;;;1.80;99.90;;;;;;4896357;29;20029;-58
2021/12/03 07:37:33;;;;;;;16.70;11.75;;;1.70;99.90;;;;;;4897494;29;20459;-59
2021/12/03 07:40:04;;;;;;;13.57;9.50;;;1.80;99.90;;;;;;4895565;29;20418;-59
2021/12/03 07:42:30;;;;;;;14.68;9.57;;;1.80;99.90;;;;;;4895300;29;20033;-59
2021/12/03 07:44:55;;;;;;;20.23;12.68;;;2.00;99.90;;;;;;4895549;29;20079;-59
2021/12/03 07:47:21;;;;;;;13.68;11.10;;;2.00;99.90;;;;;;4896315;29;20067;-60
2021/12/03 07:49:48;;;;;;;11.80;8.38;;;1.90;99.90;;;;;;4897220;29;20028;-59
2021/12/03 07:52:16;;;;;;;15.02;9.60;;;2.10;99.90;;;;;;4895506;29;20036;-59
2021/12/03 07:54:42;;;;;;;15.23;9.68;;;2.00;99.90;;;;;;4890553;29;20543;-58
2021/12/03 07:57:07;;;;;;;13.13;8.70;;;1.90;99.90;;;;;;4895898;29;20032;-58
2021/12/03 07:59:33;;;;;;;15.27;10.98;;;2.00;99.90;;;;;;4894748;29;20409;-58
2021/12/03 08:01:59;;;;;;;12.70;10.55;;;2.20;99.90;;;;;;4893101;29;20031;-59
2021/12/03 08:04:25;;;;;;;12.68;9.50;;;2.20;99.90;;;;;;4895742;29;20032;-58
2021/12/03 08:06:53;;;;;;;16.02;10.68;;;2.30;99.90;;;;;;4891549;29;20431;-59
2021/12/03 08:09:20;;;;;;;16.40;10.48;;;2.20;99.90;;;;;;4894558;29;20104;-59
2021/12/03 08:11:45;;;;;;;13.00;10.02;;;2.30;99.90;;;;;;4894883;29;20032;-59
2021/12/03 08:14:11;;;;;;;14.70;10.10;;;2.30;99.90;;;;;;4895434;29;20080;-59
2021/12/03 08:16:37;;;;;;;11.60;9.07;;;2.60;99.90;;;;;;4896237;29;20035;-59
2021/12/03 08:19:03;;;;;;;12.73;9.30;;;2.70;99.90;;;;;;4895561;29;20112;-58
2021/12/03 08:21:29;;;;;;;15.32;9.43;;;3.10;99.90;;;;;;4895208;29;20517;-58
2021/12/03 08:23:55;;;;;;;15.50;10.30;;;3.10;99.90;;;;;;4895197;29;20032;-58
2021/12/03 08:26:21;;;;;;;14.38;9.13;;;3.30;99.90;;;;;;4895540;29;20040;-59
2021/12/03 08:28:47;;;;;;;11.63;8.50;;;4.00;99.90;;;;;;4896574;29;20025;-59
2021/12/03 08:31:14;;;;;;;13.77;9.80;;;3.60;99.90;;;;;;4895083;29;20145;-59
2021/12/03 08:33:41;;;;;;;14.52;9.43;;;3.70;99.90;;;;;;4891513;29;20040;-59
2021/12/03 08:36:07;;;;;;;13.55;10.00;;;3.60;99.90;;;;;;4895209;29;20455;-59
2021/12/03 08:38:33;;;;;;;12.27;10.10;;;3.60;99.90;;;;;;4895148;29;20043;-59
2021/12/03 08:40:59;;;;;;;10.95;9.23;;;3.70;99.90;;;;;;4892713;29;20025;-59
2021/12/03 08:43:25;;;;;;;14.75;10.88;;;3.80;99.90;;;;;;4895612;29;20039;-59
2021/12/03 08:45:54;;;;;;;16.00;10.93;;;3.90;99.90;;;;;;4891023;29;20586;-59
2021/12/03 08:48:22;;;;;;;17.65;11.98;;;3.80;99.90;;;;;;4895346;29;20036;-59
2021/12/03 08:51:03;;;;;;;16.90;11.23;;;3.70;99.90;;;;;;4895337;29;20031;-59
2021/12/03 08:56:13;;;;;;;18.30;11.05;;;3.90;99.90;;;;;;4895778;29;20063;-59
2021/12/03 08:58:39;;;;;;;19.38;12.52;;;4.00;99.90;;;;;;4896864;29;20061;-59
2021/12/03 09:01:08;;;;;;;17.85;12.48;;;3.80;99.90;;;;;;4894748;29;20041;-59
2021/12/03 09:03:34;;;;;;;20.20;14.02;;;3.90;99.90;;;;;;4895195;29;20037;-58
2021/12/03 09:06:00;;;;;;;19.20;13.45;;;4.00;99.90;;;;;;4894950;29;20415;-59
2021/12/03 09:08:25;;;;;;;18.42;13.73;;;4.10;99.90;;;;;;4895212;29;20044;-59
2021/12/03 09:10:51;;;;;;;18.75;12.90;;;4.20;99.90;;;;;;4896730;29;20033;-59
2021/12/03 09:13:17;;;;;;;19.45;12.68;;;4.50;99.90;;;;;;4895357;29;20107;-59
2021/12/03 09:15:54;;;;;;;18.52;12.80;;;4.90;99.90;;;;;;4894831;29;20036;-59
2021/12/03 09:18:29;;;;;;;21.50;13.00;;;5.00;99.90;;;;;;4891111;29;20039;-59
2021/12/03 09:20:59;;;;;;;25.52;13.55;;;4.90;99.90;;;;;;4895307;29;20061;-59
2021/12/03 09:26:13;;;;;;;23.40;13.27;;;5.00;99.90;;;;;;4893162;29;20095;-59
2021/12/03 09:28:43;;;;;;;22.65;13.45;;;5.00;99.90;;;;;;4883549;29;20073;-59
2021/12/03 09:31:10;;;;;;;22.13;13.43;;;5.00;99.90;;;;;;4893273;29;20044;-59
2021/12/03 09:33:39;;;;;;;23.60;13.70;;;5.10;99.90;;;;;;4896447;29;20080;-59
2021/12/03 09:36:07;;;;;;;22.17;13.48;;;5.20;99.90;;;;;;4897796;29;20041;-59
2021/12/03 09:38:34;;;;;;;20.80;13.18;;;5.20;99.90;;;;;;4898245;29;20021;-59
2021/12/03 09:41:14;;;;;;;23.52;13.48;;;5.30;99.90;;;;;;4899279;29;20485;-59
2021/12/03 09:43:49;;;;;;;24.15;13.52;;;5.50;99.90;;;;;;4884967;29;20040;-59
2021/12/03 09:46:22;;;;;;;24.05;13.52;;;5.50;99.90;;;;;;4897048;29;20513;-59
2021/12/03 09:49:20;;;;;;;20.20;10.82;;;5.60;99.90;;;;;;4898232;29;20028;-59
2021/12/03 09:57:04;;;;;;;24.20;13.60;;;5.80;99.90;;;;;;4894848;29;20444;-57
2021/12/03 10:13:09;;;;;;;18.88;10.13;;;7.10;99.90;;;;;;4858067;29;20038;-58
2021/12/03 10:15:44;;;;;;;20.85;10.55;;;7.30;99.90;;;;;;4858041;29;20037;-59
2021/12/03 10:18:17;;;;;;;20.65;9.73;;;7.20;99.90;;;;;;4857035;29;20427;-58
2021/12/03 10:46:33;;;;;;;14.57;6.65;;;7.60;99.90;;;;;;4895852;29;20161;-58
2021/12/03 10:52:11;;;;;;;15.32;6.15;;;7.90;99.90;;;;;;4857721;29;20140;-59
2021/12/03 12:39:23;;;;;;;7.43;2.78;;;9.60;99.90;;;;;;4864075;29;20124;-67
2021/12/03 13:27:40;;;;;;;11.18;3.70;;;10.30;99.90;;;;;;4885963;29;20040;-68
2021/12/03 13:58:08;;;;;;;7.95;2.13;;;9.90;99.90;;;;;;4893637;29;20387;-69
2021/12/03 14:40:43;;;;;;;9.88;5.50;;;9.70;99.90;;;;;;4839291;29;20030;-68
2021/12/03 14:51:00;;;;;;;7.22;2.58;;;9.70;99.90;;;;;;4839611;29;20038;-68
2021/12/03 14:56:16;;;;;;;14.80;10.77;;;9.80;99.90;;;;;;4837786;29;20504;-69
2021/12/03 14:58:51;;;;;;;7.97;3.50;;;9.70;99.90;;;;;;4840371;29;20038;-68
2021/12/03 15:15:19;;;;;;;4.35;2.75;;;9.60;99.90;;;;;;4860454;29;20579;-68
2021/12/03 15:22:51;;;;;;;8.70;6.03;;;9.50;99.90;;;;;;4858196;29;20560;-68
2021/12/03 15:36:05;;;;;;;7.18;3.97;;;9.70;99.90;;;;;;4817177;29;20043;-68
2021/12/03 16:10:42;;;;;;;3.90;2.20;;;9.80;99.90;;;;;;4896685;29;20494;-68
2021/12/03 16:18:52;;;;;;;;;;;9.80;99.90;;;;;;4896069;29;20402;-68
2021/12/03 16:53:02;;;;;;;6.03;5.43;;;9.90;99.90;;;;;;4896127;29;19933;-67
2021/12/03 16:55:28;;;;;;;9.93;8.93;;;10.00;99.90;;;;;;4891541;29;20040;-67
2021/12/03 16:57:54;;;;;;;8.95;8.05;;;10.10;99.90;;;;;;4895319;29;20104;-66
2021/12/03 17:00:28;;;;;;;9.75;8.70;;;10.10;99.90;;;;;;4895151;29;20032;-65
2021/12/03 17:03:08;;;;;;;;;;;10.10;99.90;;;;;;4895429;29;20029;-66
2021/12/03 17:08:38;;;;;;;;;;;10.20;99.90;;;;;;4894070;29;20508;-66
2021/12/03 17:11:29;;;;;;;11.43;10.00;;;10.30;99.90;;;;;;4895844;29;19907;-67
2021/12/03 17:53:46;;;;;;;18.52;9.65;;;12.10;99.90;;;;;;4855438;29;20450;-65
2021/12/03 17:58:44;;;;;;;18.17;6.82;;;12.30;99.90;;;;;;4859692;29;20101;-66
2021/12/03 18:01:23;;;;;;;22.63;6.55;;;12.30;99.90;;;;;;4858638;29;20526;-64
2021/12/03 18:09:25;;;;;;;28.90;10.13;;;12.50;99.90;;;;;;4858818;29;20049;-66
2021/12/03 18:49:34;;;;;;;;;;;12.80;99.90;;;;;;4898232;29;20063;-64
2021/12/03 18:54:52;;;;;;;28.52;8.70;;;12.90;99.90;;;;;;4896995;29;20052;-68
2021/12/03 18:57:21;;;;;;;25.40;9.30;;;12.90;99.90;;;;;;4896924;29;20033;-66
2021/12/03 19:00:00;;;;;;;31.33;5.70;;;12.90;99.90;;;;;;4896638;29;20056;-66
2021/12/03 19:02:27;;;;;;;30.90;8.05;;;12.80;99.90;;;;;;4896414;29;20111;-64
2021/12/03 19:05:00;;;;;;;34.38;10.15;;;12.90;99.90;;;;;;4893753;29;20100;-69
2021/12/03 19:07:40;;;;;;;33.40;7.30;;;12.90;99.90;;;;;;4895532;29;20032;-67
2021/12/03 19:10:11;;;;;;;36.63;8.20;;;12.90;99.90;;;;;;4892189;29;20044;-68
2021/12/03 19:12:40;;;;;;;32.65;6.32;;;13.00;99.90;;;;;;4897017;29;20413;-74
2021/12/03 19:15:06;;;;;;;38.30;5.30;;;12.90;99.90;;;;;;4896278;29;20029;-68
2021/12/03 19:17:37;;;;;;;29.30;5.50;;;12.90;99.90;;;;;;4896575;29;20052;-66
2021/12/03 19:20:05;;;;;;;39.20;6.32;;;12.90;99.90;;;;;;4897620;29;20636;-69
2021/12/03 19:22:31;;;;;;;42.25;9.43;;;12.90;99.90;;;;;;4892810;29;20119;-68
2021/12/03 19:24:58;;;;;;;118.68;74.03;;;13.00;99.90;;;;;;4895769;29;20095;-71
2021/12/03 19:27:27;;;;;;;46.55;15.38;;;13.00;99.90;;;;;;4896515;29;20116;-68
2021/12/03 19:29:58;;;;;;;58.15;24.35;;;13.00;99.90;;;;;;4893977;29;20075;-67
2021/12/03 19:32:28;;;;;;;37.08;7.85;;;13.00;99.90;;;;;;4895283;29;20040;-66
2021/12/03 19:34:53;;;;;;;36.13;5.43;;;13.00;99.90;;;;;;4897470;29;20562;-69
2021/12/03 19:37:24;;;;;;;35.35;7.43;;;13.00;99.90;;;;;;4896360;29;20060;-70
2021/12/03 19:39:50;;;;;;;30.73;5.45;;;13.00;99.90;;;;;;4895899;29;20520;-69
2021/12/03 19:42:26;;;;;;;33.72;6.57;;;13.00;99.90;;;;;;4892036;29;20040;-71
2021/12/03 19:44:55;;;;;;;34.95;6.00;;;13.00;99.90;;;;;;4895385;29;20580;-69
2021/12/03 19:50:27;;;;;;;35.08;5.45;;;13.00;99.90;;;;;;4855214;29;20045;-70
2021/12/03 19:52:59;;;;;;;33.67;5.90;;;13.10;99.90;;;;;;4858204;29;20424;-70
2021/12/03 19:55:25;;;;;;;34.58;5.88;;;13.10;99.90;;;;;;4856250;29;20146;-69
2021/12/03 19:57:51;;;;;;;30.13;4.50;;;13.10;99.90;;;;;;4855573;29;20033;-69
2021/12/03 20:00:18;;;;;;;153.50;105.88;;;13.10;99.90;;;;;;4856180;29;20052;-69
2021/12/03 20:02:44;;;;;;;29.40;9.20;;;13.10;99.90;;;;;;4856477;29;20057;-68
2021/12/03 20:05:10;;;;;;;25.48;5.80;;;13.10;99.90;;;;;;4856996;29;20068;-68
2021/12/03 20:07:35;;;;;;;24.35;5.32;;;13.10;99.90;;;;;;4855645;29;20045;-67
2021/12/03 20:10:04;;;;;;;25.67;5.45;;;13.10;99.90;;;;;;4856435;29;20057;-67
2021/12/03 20:12:33;;;;;;;31.05;11.32;;;13.10;99.90;;;;;;4855526;29;20128;-66
2021/12/03 20:15:01;;;;;;;27.83;4.95;;;13.10;99.90;;;;;;4856250;29;20038;-68
2021/12/03 20:17:33;;;;;;;23.30;5.28;;;13.00;99.90;;;;;;4855026;29;20093;-66
2021/12/03 20:20:01;;;;;;;36.67;13.85;;;13.10;99.90;;;;;;4857196;29;20176;-67
2021/12/03 20:25:39;;;;;;;29.13;11.60;;;13.10;99.90;;;;;;4860400;29;20136;-67
2021/12/03 20:38:23;;;;;;;27.60;6.63;;;13.20;99.90;;;;;;4893756;29;20517;-68
2021/12/03 20:40:53;;;;;;;31.95;11.00;;;13.10;99.90;;;;;;4872667;29;20044;-71
2021/12/03 20:51:46;;;;;;;39.63;10.13;;;13.20;99.90;;;;;;4841512;29;19968;-67
2021/12/03 21:10:05;;;;;;;31.60;6.57;;;13.10;99.90;;;;;;4841665;29;20100;-66
2021/12/03 21:12:38;;;;;;;39.47;6.40;;;13.00;99.90;;;;;;4841205;29;20042;-67
2021/12/03 21:22:38;;;;;;;33.33;9.30;;;13.00;99.90;;;;;;4891371;29;20032;-67